Time;durP1;ratioP1;P1;durP2;ratioP2;P2;SDS_P1;SDS_P2;PMS_P1;PMS_P2;Temp;Humidity;BMP_temperature;BMP_pressure;BME280_temperature;BME280_humidity;BME280_pressure;Samples;Min_cycle;Max_cycle;Signal;HPM_P1;HPM_P2
2021/12/13 05:00:56;;;;;;;15.57;8.85;;;9.40;99.90;;;;;;5757651;23;20382;-70
2021/12/13 05:03:26;;;;;;;21.55;9.70;;;9.50;99.90;;;;;;4966858;28;20679;-70
2021/12/13 05:05:53;;;;;;;21.42;9.05;;;9.50;99.90;;;;;;4974701;28;20216;-70
2021/12/13 05:08:22;;;;;;;22.90;9.60;;;9.60;99.90;;;;;;4968375;28;20584;-70
2021/12/13 05:10:50;;;;;;;15.73;8.70;;;9.60;99.90;;;;;;4967990;28;20225;-70
2021/12/13 05:13:21;;;;;;;17.58;9.20;;;9.60;99.90;;;;;;4951390;28;20691;-71
2021/12/13 05:15:58;;;;;;;19.25;11.25;;;9.60;99.90;;;;;;4955403;28;20209;-71
2021/12/13 05:18:27;;;;;;;24.67;9.50;;;9.60;99.90;;;;;;4955447;29;20550;-71
2021/12/13 05:21:02;;;;;;;15.85;9.25;;;9.60;99.90;;;;;;4945571;28;20579;-71
2021/12/13 05:23:31;;;;;;;19.92;9.18;;;9.60;99.90;;;;;;4940571;29;20220;-70
2021/12/13 05:26:00;;;;;;;16.33;9.43;;;9.60;99.90;;;;;;4950703;28;20208;-70
2021/12/13 05:28:30;;;;;;;18.65;10.15;;;9.60;99.90;;;;;;4953655;28;20224;-70
2021/12/13 05:31:02;;;;;;;18.08;9.82;;;9.60;99.90;;;;;;4952355;28;20664;-70
2021/12/13 05:33:31;;;;;;;17.60;9.13;;;9.60;99.90;;;;;;4937734;28;20221;-69
2021/12/13 05:36:01;;;;;;;22.30;10.18;;;9.70;99.90;;;;;;4935865;29;20201;-69
2021/12/13 05:38:32;;;;;;;19.50;10.13;;;9.60;99.90;;;;;;4940032;29;20564;-68
2021/12/13 05:41:01;;;;;;;15.63;9.95;;;9.60;99.90;;;;;;4951964;28;20257;-69
2021/12/13 05:43:34;;;;;;;24.55;11.02;;;9.60;99.90;;;;;;4945612;29;20639;-69
2021/12/13 05:46:06;;;;;;;22.63;9.05;;;9.70;99.90;;;;;;4955366;28;20208;-69
2021/12/13 05:48:44;;;;;;;26.67;10.18;;;9.60;99.90;;;;;;4955474;28;20216;-70
2021/12/13 05:51:23;;;;;;;20.35;8.52;;;9.60;99.90;;;;;;4954433;28;20229;-70
2021/12/13 05:53:56;;;;;;;21.05;9.18;;;9.60;99.90;;;;;;4955078;28;20212;-70
2021/12/13 05:56:22;;;;;;;21.05;8.55;;;9.60;99.90;;;;;;4955111;28;20217;-70
2021/12/13 05:58:52;;;;;;;19.50;9.32;;;9.60;99.90;;;;;;4944623;28;20289;-70
2021/12/13 06:01:24;;;;;;;16.40;9.75;;;9.60;99.90;;;;;;4948680;29;20237;-70
2021/12/13 06:03:55;;;;;;;17.08;8.75;;;9.60;99.90;;;;;;4952238;29;20198;-71
2021/12/13 06:06:28;;;;;;;20.27;8.85;;;9.60;99.90;;;;;;4936536;29;20210;-71
2021/12/13 06:08:58;;;;;;;17.45;8.65;;;9.60;99.90;;;;;;4946066;29;20293;-70
2021/12/13 06:11:32;;;;;;;21.67;9.82;;;9.60;99.90;;;;;;4954841;28;20233;-70
2021/12/13 06:14:03;;;;;;;20.67;10.15;;;9.60;99.90;;;;;;4952028;28;20209;-71
2021/12/13 06:16:39;;;;;;;19.40;10.70;;;9.60;99.90;;;;;;4953692;29;20221;-69
2021/12/13 06:19:11;;;;;;;21.88;11.75;;;9.60;99.90;;;;;;4951174;28;20236;-71
2021/12/13 06:21:59;;;;;;;24.45;10.45;;;9.60;99.90;;;;;;4943279;28;20221;-70
2021/12/13 06:24:33;;;;;;;22.35;9.30;;;9.60;99.90;;;;;;4935208;29;20822;-70
2021/12/13 06:27:04;;;;;;;22.25;9.45;;;9.60;99.90;;;;;;4935485;29;20205;-70
2021/12/13 06:30:03;;;;;;;23.40;10.35;;;9.70;99.90;;;;;;4950033;29;20205;-69
2021/12/13 06:32:42;;;;;;;19.50;9.93;;;9.60;99.90;;;;;;4952968;28;20324;-70
2021/12/13 06:35:29;;;;;;;23.15;10.70;;;9.70;99.90;;;;;;4954116;28;20220;-70
2021/12/13 06:37:57;;;;;;;31.55;11.23;;;9.70;99.90;;;;;;4951715;28;20774;-70
2021/12/13 06:40:29;;;;;;;22.60;10.52;;;9.70;99.90;;;;;;4935005;29;20210;-71
2021/12/13 06:42:56;;;;;;;29.20;12.30;;;9.70;99.90;;;;;;4935378;29;20237;-71
2021/12/13 06:45:28;;;;;;;32.17;13.00;;;9.70;99.90;;;;;;4934996;29;20210;-70
2021/12/13 06:47:58;;;;;;;28.48;11.93;;;9.70;99.90;;;;;;4936613;28;20209;-70
2021/12/13 06:50:30;;;;;;;26.63;12.30;;;9.70;99.90;;;;;;4952475;28;20208;-70
2021/12/13 06:53:11;;;;;;;28.13;14.15;;;9.70;99.90;;;;;;4953205;28;20216;-70
2021/12/13 06:55:38;;;;;;;37.08;15.73;;;9.70;99.90;;;;;;4952819;28;20693;-70
2021/12/13 06:58:17;;;;;;;30.38;15.70;;;9.70;99.90;;;;;;4953106;28;20204;-70
2021/12/13 07:00:45;;;;;;;46.30;24.35;;;9.70;99.90;;;;;;4953426;28;20240;-69
2021/12/13 07:03:19;;;;;;;38.85;17.50;;;9.70;99.90;;;;;;4952323;28;20213;-69
2021/12/13 07:05:49;;;;;;;49.88;21.60;;;9.70;99.90;;;;;;4946625;29;20749;-69
2021/12/13 07:08:20;;;;;;;36.50;16.60;;;9.70;99.90;;;;;;4952495;28;20207;-71
2021/12/13 07:10:57;;;;;;;31.70;15.68;;;9.70;99.90;;;;;;4953371;28;20259;-70
2021/12/13 07:13:28;;;;;;;41.92;15.63;;;9.70;99.90;;;;;;4940593;28;20217;-70
2021/12/13 07:16:01;;;;;;;38.08;15.18;;;9.80;99.90;;;;;;4940785;29;20232;-69
2021/12/13 07:18:39;;;;;;;37.40;16.38;;;9.80;99.90;;;;;;4952782;28;20598;-69
2021/12/13 07:21:10;;;;;;;35.78;15.82;;;9.80;99.90;;;;;;4934467;28;20222;-70
2021/12/13 07:23:56;;;;;;;38.72;18.08;;;9.80;99.90;;;;;;4948028;29;20212;-70
2021/12/13 07:26:35;;;;;;;33.25;14.30;;;9.80;99.90;;;;;;4940883;29;20206;-70
2021/12/13 07:29:04;;;;;;;36.28;15.13;;;9.80;99.90;;;;;;4935583;29;20217;-70
2021/12/13 07:31:31;;;;;;;34.03;13.93;;;9.80;99.90;;;;;;4933877;29;20260;-69
2021/12/13 07:34:11;;;;;;;39.45;15.32;;;9.80;99.90;;;;;;4945184;29;20718;-68
2021/12/13 07:36:38;;;;;;;30.10;13.45;;;9.80;99.90;;;;;;4942845;28;20206;-69
2021/12/13 07:39:11;;;;;;;29.45;14.70;;;9.80;99.90;;;;;;4937450;29;21810;-69
2021/12/13 07:41:45;;;;;;;33.42;13.35;;;9.80;99.90;;;;;;4952955;28;20271;-70
2021/12/13 07:44:35;;;;;;;37.80;14.55;;;9.90;99.90;;;;;;4952208;28;20204;-70
2021/12/13 07:47:05;;;;;;;32.33;14.32;;;9.80;99.90;;;;;;4939533;29;20612;-70
2021/12/13 07:49:35;;;;;;;32.22;13.65;;;9.80;99.90;;;;;;4933989;29;20300;-69
2021/12/13 07:52:05;;;;;;;38.15;13.85;;;9.80;99.90;;;;;;4950171;28;20240;-70
2021/12/13 07:54:39;;;;;;;30.77;12.50;;;9.90;99.90;;;;;;4936616;28;20217;-70
2021/12/13 07:57:16;;;;;;;28.67;12.27;;;9.90;99.90;;;;;;4947102;29;20258;-69
2021/12/13 07:59:43;;;;;;;33.25;13.02;;;9.90;99.90;;;;;;4952670;28;20295;-69
2021/12/13 08:02:18;;;;;;;29.83;12.88;;;9.90;99.90;;;;;;4937814;28;20285;-69
2021/12/13 08:04:50;;;;;;;30.60;12.23;;;9.90;99.90;;;;;;4950287;28;20343;-69
2021/12/13 08:07:20;;;;;;;26.25;10.35;;;9.90;99.90;;;;;;4950810;28;20292;-70
2021/12/13 08:09:51;;;;;;;22.88;11.43;;;9.90;99.90;;;;;;4936316;28;20221;-70
2021/12/13 08:12:22;;;;;;;29.40;10.75;;;9.90;99.90;;;;;;4937112;29;20257;-69
2021/12/13 08:14:52;;;;;;;18.70;10.77;;;9.90;99.90;;;;;;4933798;29;20249;-69
2021/12/13 08:17:23;;;;;;;22.80;12.65;;;9.90;99.90;;;;;;4949485;29;20649;-69
2021/12/13 08:20:01;;;;;;;20.98;10.52;;;9.90;99.90;;;;;;4951243;28;20221;-70
2021/12/13 08:22:30;;;;;;;28.70;9.70;;;9.90;99.90;;;;;;4942071;28;20263;-70
2021/12/13 08:25:01;;;;;;;33.28;14.15;;;10.00;99.90;;;;;;4940120;28;20654;-70
2021/12/13 08:27:31;;;;;;;39.85;11.10;;;10.00;99.90;;;;;;4950263;28;20213;-70
2021/12/13 08:30:11;;;;;;;27.38;11.15;;;10.00;99.90;;;;;;4952602;28;20613;-70
2021/12/13 08:32:38;;;;;;;25.40;11.07;;;10.00;99.90;;;;;;4953803;28;20205;-70
2021/12/13 08:35:08;;;;;;;28.33;11.48;;;10.00;99.90;;;;;;4951757;28;20210;-70
2021/12/13 08:37:39;;;;;;;19.95;8.95;;;10.00;99.90;;;;;;4953994;28;20232;-70
2021/12/13 08:40:11;;;;;;;16.85;7.75;;;10.00;99.90;;;;;;4943923;28;20232;-70
2021/12/13 08:42:41;;;;;;;17.83;8.43;;;10.00;99.90;;;;;;4960253;28;20209;-70
2021/12/13 08:45:17;;;;;;;13.40;7.95;;;10.00;99.90;;;;;;4965325;28;20688;-70
2021/12/13 08:47:47;;;;;;;14.70;8.05;;;10.00;99.90;;;;;;4943278;29;20284;-70
2021/12/13 08:50:19;;;;;;;18.55;8.63;;;10.10;99.90;;;;;;4938002;29;20225;-70
2021/12/13 08:52:49;;;;;;;21.05;7.82;;;10.10;99.90;;;;;;4951724;28;20214;-70
2021/12/13 08:55:25;;;;;;;20.20;8.65;;;10.10;99.90;;;;;;4952516;28;20220;-70
2021/12/13 08:57:56;;;;;;;15.77;8.38;;;10.10;99.90;;;;;;4947095;29;20636;-70
2021/12/13 09:00:53;;;;;;;14.40;7.60;;;10.10;99.90;;;;;;4949861;29;20232;-70
2021/12/13 09:03:30;;;;;;;15.82;8.45;;;10.10;99.90;;;;;;4953748;28;20205;-70
2021/12/13 09:06:05;;;;;;;15.10;7.85;;;10.10;99.90;;;;;;4947295;28;20216;-70
2021/12/13 09:08:37;;;;;;;23.10;11.68;;;10.20;99.90;;;;;;4950458;28;20577;-69
2021/12/13 09:11:19;;;;;;;12.15;8.50;;;10.20;99.90;;;;;;4947084;28;21357;-69
2021/12/13 09:13:49;;;;;;;20.92;7.50;;;10.20;99.90;;;;;;4950294;28;20216;-69
2021/12/13 09:16:19;;;;;;;14.75;7.90;;;10.20;99.90;;;;;;4952271;28;20228;-69
2021/12/13 09:18:47;;;;;;;18.85;8.95;;;10.20;99.90;;;;;;4938722;28;20265;-69
2021/12/13 09:21:19;;;;;;;18.70;8.35;;;10.20;99.90;;;;;;4933625;29;20236;-70
2021/12/13 09:23:48;;;;;;;22.45;10.30;;;10.20;99.90;;;;;;4937343;28;20210;-70
2021/12/13 09:26:19;;;;;;;17.13;9.30;;;10.30;99.90;;;;;;4946119;28;20757;-69
2021/12/13 09:28:50;;;;;;;18.55;9.18;;;10.30;99.90;;;;;;4947871;28;20205;-69
2021/12/13 09:31:19;;;;;;;18.45;8.45;;;10.30;99.90;;;;;;4950482;28;20308;-69
2021/12/13 09:33:49;;;;;;;24.45;10.55;;;10.40;99.90;;;;;;4949981;28;20201;-70
2021/12/13 09:36:21;;;;;;;23.73;10.15;;;10.40;99.90;;;;;;4940762;29;20217;-70
2021/12/13 09:38:58;;;;;;;24.65;12.07;;;10.40;99.90;;;;;;4944807;28;20189;-69
2021/12/13 09:41:33;;;;;;;27.85;12.43;;;10.40;99.90;;;;;;4943164;28;20225;-71
2021/12/13 09:44:16;;;;;;;26.08;12.25;;;10.50;99.90;;;;;;4950879;29;20547;-69
2021/12/13 09:46:48;;;;;;;25.27;11.35;;;10.50;99.90;;;;;;4954694;28;20225;-69
2021/12/13 09:49:23;;;;;;;25.98;11.02;;;10.50;99.90;;;;;;4953286;29;20787;-68
2021/12/13 09:51:55;;;;;;;26.08;11.57;;;10.50;99.90;;;;;;4948744;29;20237;-68
2021/12/13 09:54:26;;;;;;;24.60;11.60;;;10.50;99.90;;;;;;4964315;28;20193;-68
2021/12/13 09:56:54;;;;;;;23.15;12.35;;;10.50;99.90;;;;;;4962475;28;20205;-69
2021/12/13 09:59:25;;;;;;;24.88;13.40;;;10.50;99.90;;;;;;4956395;28;20225;-70
2021/12/13 10:01:55;;;;;;;23.73;12.13;;;10.50;99.90;;;;;;4947199;28;20645;-69
2021/12/13 10:04:30;;;;;;;32.78;13.95;;;10.60;99.90;;;;;;4941668;28;20209;-69
2021/12/13 10:07:02;;;;;;;24.88;12.75;;;10.60;99.90;;;;;;4950445;29;20198;-69
2021/12/13 10:09:34;;;;;;;30.95;15.77;;;10.60;99.90;;;;;;4934868;29;20198;-70
2021/12/13 10:12:05;;;;;;;29.27;14.23;;;10.60;99.90;;;;;;4947507;29;20314;-70
2021/12/13 10:14:35;;;;;;;32.95;17.60;;;10.60;99.90;;;;;;4952898;29;20226;-69
2021/12/13 10:17:05;;;;;;;24.70;14.80;;;10.60;99.90;;;;;;4947898;29;20225;-69
2021/12/13 10:19:37;;;;;;;18.70;11.73;;;10.50;99.90;;;;;;4955109;28;20295;-69
2021/12/13 10:22:09;;;;;;;21.08;13.10;;;10.50;99.90;;;;;;4961737;28;20236;-71
2021/12/13 10:24:40;;;;;;;22.52;12.60;;;10.60;99.90;;;;;;4957842;28;20259;-70
2021/12/13 10:27:11;;;;;;;24.70;13.15;;;10.70;99.90;;;;;;4957586;28;20208;-69
2021/12/13 10:29:39;;;;;;;34.30;14.43;;;10.60;99.90;;;;;;4953268;28;20201;-70
2021/12/13 10:32:09;;;;;;;27.73;13.98;;;10.60;99.90;;;;;;4952852;28;20228;-70
2021/12/13 10:34:39;;;;;;;23.50;13.05;;;10.70;99.90;;;;;;4958990;28;20649;-70
2021/12/13 10:37:10;;;;;;;32.35;14.80;;;10.70;99.90;;;;;;4955177;28;20205;-70
2021/12/13 10:39:41;;;;;;;21.90;12.30;;;10.70;99.90;;;;;;4941894;29;20949;-70
2021/12/13 10:42:12;;;;;;;30.25;12.48;;;10.70;99.90;;;;;;4952532;29;20272;-69
2021/12/13 10:44:44;;;;;;;23.48;12.85;;;10.70;99.90;;;;;;4940479;29;20197;-69
2021/12/13 10:47:13;;;;;;;27.40;14.25;;;10.70;99.90;;;;;;4953985;29;20248;-70
2021/12/13 10:49:44;;;;;;;23.63;12.85;;;10.80;99.90;;;;;;4934645;29;20209;-70
2021/12/13 10:52:17;;;;;;;24.15;13.57;;;10.80;99.90;;;;;;4943536;29;20229;-70
2021/12/13 10:54:47;;;;;;;17.27;11.75;;;10.80;99.90;;;;;;4947432;29;20201;-70
2021/12/13 10:57:16;;;;;;;22.15;10.93;;;10.80;99.90;;;;;;4968457;28;20244;-70
2021/12/13 10:59:44;;;;;;;17.33;11.00;;;10.80;99.90;;;;;;4956013;28;20217;-69
2021/12/13 11:02:16;;;;;;;18.75;11.82;;;10.80;99.90;;;;;;4946000;28;20233;-69
2021/12/13 11:04:49;;;;;;;15.93;11.60;;;10.70;99.90;;;;;;4947018;29;20275;-70
2021/12/13 11:07:18;;;;;;;17.73;11.63;;;10.80;99.90;;;;;;4950833;29;20220;-70
2021/12/13 11:09:46;;;;;;;14.23;10.20;;;10.70;99.90;;;;;;4951199;28;20197;-69
2021/12/13 11:12:17;;;;;;;14.30;10.18;;;10.70;99.90;;;;;;4951778;28;20292;-69
2021/12/13 11:14:47;;;;;;;14.00;10.40;;;10.70;99.90;;;;;;4952672;29;20213;-70
2021/12/13 11:17:18;;;;;;;15.70;10.05;;;10.80;99.90;;;;;;4952929;29;20205;-68
2021/12/13 11:19:47;;;;;;;15.35;10.63;;;10.80;99.90;;;;;;4952194;28;20610;-70
2021/12/13 11:22:19;;;;;;;14.38;10.77;;;10.80;99.90;;;;;;4939968;28;20225;-70
2021/12/13 11:24:50;;;;;;;15.20;10.52;;;10.80;99.90;;;;;;4942433;29;20204;-70
2021/12/13 11:27:19;;;;;;;14.02;10.75;;;10.80;99.90;;;;;;4951799;28;20202;-70
2021/12/13 11:29:48;;;;;;;18.85;10.75;;;10.80;99.90;;;;;;4952672;28;20196;-70
2021/12/13 11:32:44;;;;;;;16.25;10.73;;;10.80;99.90;;;;;;4968729;28;20228;-69
2021/12/13 11:35:47;;;;;;;18.75;11.98;;;10.80;99.90;;;;;;4940920;29;20268;-69
2021/12/13 11:38:36;;;;;;;16.13;11.13;;;10.90;99.90;;;;;;4950520;28;20224;-69
2021/12/13 11:41:29;;;;;;;17.58;11.23;;;10.90;99.90;;;;;;4951638;28;20318;-70
2021/12/13 11:44:17;;;;;;;19.17;12.23;;;10.90;99.90;;;;;;4935929;28;20228;-69
2021/12/13 11:47:16;;;;;;;16.58;11.15;;;10.90;99.90;;;;;;4933765;29;20206;-69
2021/12/13 11:50:19;;;;;;;18.85;11.63;;;10.90;99.90;;;;;;4947358;29;20423;-70
2021/12/13 11:53:13;;;;;;;16.90;11.38;;;10.90;99.90;;;;;;4946981;28;20205;-69
2021/12/13 11:56:15;;;;;;;20.17;11.45;;;10.90;99.90;;;;;;4932609;29;20210;-69
2021/12/13 11:59:21;;;;;;;15.88;11.57;;;10.90;99.90;;;;;;4902332;29;20213;-69
2021/12/13 12:02:12;;;;;;;17.33;12.55;;;10.90;99.90;;;;;;4926133;29;20279;-69
2021/12/13 12:05:15;;;;;;;18.90;14.97;;;10.90;99.90;;;;;;4948913;28;20209;-69
2021/12/13 12:08:23;;;;;;;16.20;11.27;;;10.90;99.90;;;;;;4952221;28;20827;-69
2021/12/13 12:11:17;;;;;;;19.80;13.93;;;10.90;99.90;;;;;;4950454;28;20528;-69
2021/12/13 12:13:52;;;;;;;18.57;12.17;;;11.00;99.90;;;;;;4952423;28;20537;-69
2021/12/13 12:16:23;;;;;;;14.45;11.05;;;11.00;99.90;;;;;;4952668;28;20499;-69
2021/12/13 12:18:51;;;;;;;15.07;11.20;;;11.00;99.90;;;;;;4952652;28;20594;-69
2021/12/13 12:21:39;;;;;;;19.27;11.70;;;11.00;99.90;;;;;;4949138;28;20492;-69
2021/12/13 12:24:08;;;;;;;19.65;12.43;;;11.00;99.90;;;;;;4933229;29;20214;-69
2021/12/13 12:26:37;;;;;;;16.83;12.50;;;11.00;99.90;;;;;;4933349;29;20236;-70
2021/12/13 12:29:11;;;;;;;18.23;12.10;;;11.00;99.90;;;;;;4933114;29;20210;-69
2021/12/13 12:31:40;;;;;;;21.88;15.85;;;11.00;99.90;;;;;;4940999;29;20229;-69
2021/12/13 12:34:08;;;;;;;13.90;10.35;;;11.00;99.90;;;;;;4952063;28;20239;-69
2021/12/13 12:37:01;;;;;;;13.90;11.63;;;10.90;99.90;;;;;;4951686;29;20809;-69
2021/12/13 12:39:57;;;;;;;14.07;10.38;;;10.90;99.90;;;;;;4951960;29;20215;-69
2021/12/13 12:42:34;;;;;;;13.48;8.93;;;10.90;99.90;;;;;;4951535;28;20241;-69
2021/12/13 12:45:08;;;;;;;12.23;10.50;;;10.80;99.90;;;;;;4971268;28;20267;-68
2021/12/13 12:48:03;;;;;;;15.88;12.05;;;10.80;99.90;;;;;;4971380;28;20218;-69
2021/12/13 12:50:33;;;;;;;11.85;9.27;;;10.80;99.90;;;;;;4966414;28;20264;-69
2021/12/13 12:53:04;;;;;;;11.73;8.70;;;10.80;99.90;;;;;;4951544;28;20208;-69
2021/12/13 12:55:37;;;;;;;9.77;7.57;;;10.70;99.90;;;;;;4952455;28;20264;-70
2021/12/13 12:58:11;;;;;;;9.35;7.60;;;10.70;99.90;;;;;;4951876;28;20654;-69
2021/12/13 13:00:41;;;;;;;8.10;6.90;;;10.70;99.90;;;;;;4947442;28;20718;-69
2021/12/13 13:03:13;;;;;;;7.40;6.28;;;10.60;99.90;;;;;;4934050;29;20636;-70
2021/12/13 13:05:41;;;;;;;21.58;16.77;;;10.60;99.90;;;;;;4932760;28;20682;-69
2021/12/13 13:08:08;;;;;;;15.02;11.77;;;10.60;99.90;;;;;;4937034;29;20214;-69
2021/12/13 13:10:47;;;;;;;9.30;7.38;;;10.60;99.90;;;;;;4937661;29;20311;-70
2021/12/13 13:13:16;;;;;;;9.93;7.85;;;10.50;99.90;;;;;;4962922;28;20243;-70
2021/12/13 13:15:46;;;;;;;11.02;7.20;;;10.60;99.90;;;;;;4966024;28;20480;-69
2021/12/13 13:18:16;;;;;;;8.98;8.05;;;10.50;99.90;;;;;;4975034;28;20200;-69
2021/12/13 13:20:50;;;;;;;15.07;9.23;;;10.50;99.90;;;;;;4971229;28;20240;-70
2021/12/13 13:23:18;;;;;;;9.50;7.60;;;10.50;99.90;;;;;;4955430;28;20190;-69
2021/12/13 13:25:47;;;;;;;12.38;8.52;;;10.50;99.90;;;;;;4955753;28;20209;-69
2021/12/13 13:28:20;;;;;;;8.07;7.20;;;10.50;99.90;;;;;;4955303;28;20248;-70
2021/12/13 13:30:51;;;;;;;9.85;8.55;;;10.40;99.90;;;;;;4953723;28;20296;-69
2021/12/13 13:33:31;;;;;;;12.32;9.27;;;10.40;99.90;;;;;;4955232;28;20209;-69
2021/12/13 13:35:58;;;;;;;20.13;14.15;;;10.40;99.90;;;;;;4954922;28;20240;-69
2021/12/13 13:38:25;;;;;;;12.15;8.90;;;10.40;99.90;;;;;;4954640;29;20240;-69
2021/12/13 13:40:52;;;;;;;14.00;9.10;;;10.40;99.90;;;;;;4954040;28;20236;-69
2021/12/13 13:43:22;;;;;;;10.50;8.10;;;10.40;99.90;;;;;;4949112;28;20213;-69
2021/12/13 13:45:51;;;;;;;12.25;8.95;;;10.30;99.90;;;;;;4954707;29;20209;-69
2021/12/13 13:48:23;;;;;;;14.70;9.38;;;10.40;99.90;;;;;;4954902;28;20209;-70
2021/12/13 13:50:52;;;;;;;18.38;9.07;;;10.30;99.90;;;;;;4953168;29;20325;-70
2021/12/13 13:53:22;;;;;;;11.25;8.50;;;10.30;99.90;;;;;;4954902;28;20889;-70
2021/12/13 13:55:51;;;;;;;10.98;8.75;;;10.30;99.90;;;;;;4955362;28;20279;-72
2021/12/13 13:58:21;;;;;;;9.75;8.75;;;10.30;99.90;;;;;;4955966;28;20205;-70
2021/12/13 14:00:52;;;;;;;16.55;11.48;;;10.30;99.90;;;;;;4953344;28;20236;-69
2021/12/13 14:03:24;;;;;;;16.65;10.95;;;10.30;99.90;;;;;;4954588;28;20296;-70
2021/12/13 14:05:54;;;;;;;13.68;9.43;;;10.30;99.90;;;;;;4954272;28;20193;-69
2021/12/13 14:08:24;;;;;;;16.98;11.30;;;10.30;99.90;;;;;;4954462;28;20528;-69
2021/12/13 14:10:52;;;;;;;10.90;9.00;;;10.30;99.90;;;;;;4951264;28;20217;-70
2021/12/13 14:13:21;;;;;;;14.07;10.20;;;10.30;99.90;;;;;;4935288;29;20217;-70
2021/12/13 14:15:51;;;;;;;12.55;9.20;;;10.20;99.90;;;;;;4935321;29;20214;-70
2021/12/13 14:18:20;;;;;;;12.80;10.65;;;10.20;99.90;;;;;;4938791;28;20209;-67
2021/12/13 14:20:49;;;;;;;11.75;8.98;;;10.20;99.90;;;;;;4961002;28;20228;-70
2021/12/13 14:23:23;;;;;;;17.85;9.73;;;10.20;99.90;;;;;;4935193;29;20206;-71
2021/12/13 14:25:55;;;;;;;13.23;9.98;;;10.20;99.90;;;;;;4935056;29;20210;-69
2021/12/13 14:28:33;;;;;;;16.33;9.27;;;10.20;99.90;;;;;;4957885;28;20603;-69
2021/12/13 14:31:03;;;;;;;12.98;9.88;;;10.20;99.90;;;;;;4962868;28;20260;-68
2021/12/13 14:33:32;;;;;;;17.48;10.35;;;10.10;99.90;;;;;;4952970;29;20857;-68
2021/12/13 14:36:11;;;;;;;13.65;10.23;;;10.10;99.90;;;;;;4953746;28;20290;-69
2021/12/13 14:38:41;;;;;;;13.95;9.38;;;10.10;99.90;;;;;;4953627;28;20209;-69
2021/12/13 14:41:10;;;;;;;14.27;8.90;;;10.10;99.90;;;;;;4948308;28;20234;-69
2021/12/13 14:43:41;;;;;;;18.70;10.77;;;10.10;99.90;;;;;;4934906;29;20221;-68
2021/12/13 14:46:13;;;;;;;15.30;10.07;;;10.10;99.90;;;;;;4934886;29;20198;-68
2021/12/13 14:48:40;;;;;;;18.40;11.65;;;10.10;99.90;;;;;;4934605;29;20198;-69
2021/12/13 14:51:09;;;;;;;16.92;11.88;;;10.10;99.90;;;;;;4937117;29;20247;-67
2021/12/13 14:53:39;;;;;;;16.10;12.35;;;10.10;99.90;;;;;;4953016;28;20209;-68
2021/12/13 14:56:10;;;;;;;18.23;12.55;;;10.00;99.90;;;;;;4954004;28;20206;-68
2021/12/13 14:58:42;;;;;;;21.27;16.25;;;10.00;99.90;;;;;;4953711;28;20198;-68
2021/12/13 15:01:13;;;;;;;17.33;13.18;;;10.00;99.90;;;;;;4948843;28;20229;-69
2021/12/13 15:03:44;;;;;;;15.35;11.52;;;10.00;99.90;;;;;;4938530;28;20671;-68
2021/12/13 15:06:17;;;;;;;18.52;12.25;;;10.00;99.90;;;;;;4960088;28;20572;-68
2021/12/13 15:08:47;;;;;;;17.23;11.90;;;10.00;99.90;;;;;;4955588;28;20199;-70
2021/12/13 15:11:18;;;;;;;17.10;11.88;;;10.00;99.90;;;;;;4951846;28;20241;-68
2021/12/13 15:13:50;;;;;;;19.52;12.82;;;10.00;99.90;;;;;;4953082;29;20564;-68
2021/12/13 15:16:17;;;;;;;20.88;15.93;;;10.00;99.90;;;;;;4952968;29;20197;-69
2021/12/13 15:18:47;;;;;;;22.58;16.88;;;10.00;99.90;;;;;;4953295;29;20252;-69
2021/12/13 15:21:17;;;;;;;18.05;13.48;;;9.90;99.90;;;;;;4951313;28;20221;-68
2021/12/13 15:23:47;;;;;;;16.27;13.35;;;9.90;99.90;;;;;;4956152;28;20635;-69
2021/12/13 15:26:17;;;;;;;17.02;13.43;;;9.90;99.90;;;;;;4945488;28;20206;-69
2021/12/13 15:28:49;;;;;;;24.83;15.05;;;9.90;99.90;;;;;;4944488;28;20218;-70
2021/12/13 15:31:18;;;;;;;24.98;16.00;;;10.00;99.90;;;;;;4935351;28;20545;-68
2021/12/13 15:33:47;;;;;;;23.50;15.70;;;10.00;99.90;;;;;;4941861;28;20629;-69
2021/12/13 15:36:16;;;;;;;21.02;14.60;;;10.00;99.90;;;;;;4946045;28;20281;-68
2021/12/13 15:38:45;;;;;;;24.73;14.50;;;9.90;99.90;;;;;;4949996;28;20232;-69
2021/12/13 15:41:18;;;;;;;32.03;21.35;;;9.90;99.90;;;;;;4963092;28;20229;-69
2021/12/13 15:43:51;;;;;;;22.77;13.70;;;9.90;99.90;;;;;;4951540;28;20221;-70
2021/12/13 15:46:21;;;;;;;20.88;13.90;;;9.90;99.90;;;;;;4947443;28;20198;-69
2021/12/13 16:24:30;;;;;;;21.92;14.57;;;9.60;99.90;;;;;;5100818;27;20557;-70
2021/12/13 16:26:57;;;;;;;24.70;15.35;;;9.60;99.90;;;;;;5084199;28;20203;-69
2021/12/13 16:29:25;;;;;;;25.50;14.70;;;9.60;99.90;;;;;;5082606;28;20422;-70
2021/12/13 16:31:53;;;;;;;20.92;15.15;;;9.60;99.90;;;;;;5079113;28;20263;-69
2021/12/13 16:34:21;;;;;;;21.55;15.23;;;9.60;99.90;;;;;;5087803;28;20207;-70
2021/12/13 16:36:51;;;;;;;44.00;28.88;;;9.60;99.90;;;;;;5076281;28;20224;-70
2021/12/13 16:39:20;;;;;;;23.60;17.05;;;9.60;99.90;;;;;;5080699;28;20263;-69
2021/12/13 16:41:51;;;;;;;20.45;14.88;;;9.60;99.90;;;;;;5080382;28;20670;-70
2021/12/13 16:44:20;;;;;;;25.08;15.27;;;9.60;99.90;;;;;;5085374;28;20232;-70
2021/12/13 16:46:50;;;;;;;21.80;15.30;;;9.60;99.90;;;;;;5071207;28;20314;-70
2021/12/13 16:49:19;;;;;;;23.58;15.27;;;9.60;99.90;;;;;;5078163;28;20213;-70
2021/12/13 16:51:50;;;;;;;22.92;16.95;;;9.60;99.90;;;;;;5073347;28;20221;-70
2021/12/13 16:54:20;;;;;;;18.27;14.02;;;9.60;99.90;;;;;;5084143;28;20200;-70
2021/12/13 16:56:49;;;;;;;17.80;14.52;;;9.60;99.90;;;;;;5079473;28;20254;-69
2021/12/13 16:59:17;;;;;;;19.73;13.93;;;9.60;99.90;;;;;;5070698;28;20867;-70
2021/12/13 17:01:46;;;;;;;19.30;14.30;;;9.60;99.90;;;;;;5072807;28;20228;-70
2021/12/13 17:04:17;;;;;;;20.30;14.73;;;9.60;99.90;;;;;;5079635;28;20213;-70
2021/12/13 17:06:48;;;;;;;21.85;14.45;;;9.60;99.90;;;;;;5067268;28;20252;-70
2021/12/13 17:09:15;;;;;;;19.88;15.00;;;9.60;99.90;;;;;;5068387;28;20220;-69
2021/12/13 17:11:43;;;;;;;20.38;13.43;;;9.60;99.90;;;;;;5081911;28;20697;-69
2021/12/13 17:14:19;;;;;;;19.67;15.45;;;9.60;99.90;;;;;;5080029;28;20216;-70
2021/12/13 17:16:53;;;;;;;22.77;16.13;;;9.60;99.90;;;;;;5072109;28;20284;-69
2021/12/13 17:19:22;;;;;;;18.02;13.32;;;9.60;99.90;;;;;;5083926;28;20547;-70
2021/12/13 17:21:52;;;;;;;15.05;12.32;;;9.60;99.90;;;;;;5066991;28;20308;-71
2021/12/13 17:24:22;;;;;;;16.17;13.75;;;9.60;99.90;;;;;;5073510;28;20286;-69
2021/12/13 17:26:51;;;;;;;21.52;15.60;;;9.60;99.90;;;;;;5072243;28;20205;-69
2021/12/13 17:29:24;;;;;;;18.73;14.38;;;9.60;99.90;;;;;;5071127;28;20568;-70
2021/12/13 17:31:58;;;;;;;19.77;14.15;;;9.60;99.90;;;;;;5067815;28;20297;-69
2021/12/13 17:34:32;;;;;;;25.20;15.05;;;9.60;99.90;;;;;;5068161;28;20202;-70
2021/12/13 17:36:59;;;;;;;20.60;15.45;;;9.60;99.90;;;;;;5064942;28;20205;-70
2021/12/13 17:39:27;;;;;;;19.92;14.00;;;9.60;99.90;;;;;;5056416;28;20206;-70
2021/12/13 17:41:56;;;;;;;16.90;13.25;;;9.60;99.90;;;;;;5055596;28;20228;-70
2021/12/13 17:44:25;;;;;;;21.63;14.82;;;9.60;99.90;;;;;;5060705;28;20593;-70
2021/12/13 17:46:56;;;;;;;19.58;14.20;;;9.60;99.90;;;;;;5064943;28;20205;-69
2021/12/13 17:49:44;;;;;;;20.27;15.15;;;9.60;99.90;;;;;;5073157;28;20200;-69
2021/12/13 17:52:12;;;;;;;24.63;17.30;;;9.60;99.90;;;;;;5052382;28;20214;-69
2021/12/13 17:54:51;;;;;;;22.17;14.75;;;9.60;99.90;;;;;;5053131;28;20198;-69
2021/12/13 17:57:32;;;;;;;22.10;14.93;;;9.60;99.90;;;;;;5053916;28;20274;-69
2021/12/13 18:00:00;;;;;;;21.08;15.55;;;9.50;99.90;;;;;;5062434;28;20201;-69
2021/12/13 18:02:28;;;;;;;20.70;15.60;;;9.50;99.90;;;;;;5067920;28;20236;-69
2021/12/13 18:05:05;;;;;;;22.55;15.60;;;9.60;99.90;;;;;;5055049;28;20248;-69
2021/12/13 18:07:34;;;;;;;22.00;14.65;;;9.60;99.90;;;;;;5064992;28;20284;-69
2021/12/13 18:10:01;;;;;;;22.90;16.42;;;9.50;99.90;;;;;;5066595;28;20204;-69
2021/12/13 18:12:33;;;;;;;24.27;16.38;;;9.50;99.90;;;;;;5067450;28;20251;-69
2021/12/13 18:15:26;;;;;;;25.42;16.48;;;9.50;99.90;;;;;;5069301;28;20205;-69
2021/12/13 18:17:58;;;;;;;22.35;16.35;;;9.60;99.90;;;;;;5054056;28;20263;-69
2021/12/13 18:20:35;;;;;;;24.92;17.15;;;9.50;99.90;;;;;;5066745;28;20205;-69
2021/12/13 18:23:08;;;;;;;21.70;16.30;;;9.50;99.90;;;;;;5052315;28;20709;-69
2021/12/13 18:25:45;;;;;;;21.77;15.50;;;9.60;99.90;;;;;;5056990;28;20293;-68
2021/12/13 18:28:16;;;;;;;30.00;17.45;;;9.50;99.90;;;;;;5060162;28;20202;-68
2021/12/13 18:30:49;;;;;;;27.60;17.90;;;9.50;99.90;;;;;;5064602;28;20282;-69
2021/12/13 18:33:20;;;;;;;23.15;16.30;;;9.50;99.90;;;;;;5067328;28;20204;-69
2021/12/13 18:35:50;;;;;;;27.13;18.25;;;9.50;99.90;;;;;;5060608;28;20213;-69
2021/12/13 18:38:40;;;;;;;29.50;18.20;;;9.50;99.90;;;;;;5060179;28;20201;-69
2021/12/13 18:41:12;;;;;;;30.30;16.95;;;9.50;99.90;;;;;;5061043;28;20622;-68